Time;durP1;ratioP1;P1;durP2;ratioP2;P2;SDS_P1;SDS_P2;PMS_P1;PMS_P2;Temp;Humidity;BMP_temperature;BMP_pressure;BME280_temperature;BME280_humidity;BME280_pressure;Samples;Min_cycle;Max_cycle;Signal;HPM_P1;HPM_P2
2023/09/22 00:00:57;;;;;;;2.97;2.03;;;;;;;16.85;100.00;99419.06;4985441;28;20442;-46
2023/09/22 00:03:23;;;;;;;4.22;2.00;;;;;;;16.85;100.00;99424.47;4982471;28;20193;-48
2023/09/22 00:05:49;;;;;;;2.03;1.80;;;;;;;16.71;100.00;99432.06;4984331;28;20547;-47
2023/09/22 00:08:15;;;;;;;2.33;1.40;;;;;;;16.60;100.00;99428.44;4982088;28;20269;-46
2023/09/22 00:10:40;;;;;;;2.83;1.50;;;;;;;16.58;100.00;99434.97;4981414;28;20186;-46
2023/09/22 00:13:06;;;;;;;1.50;1.40;;;;;;;16.62;100.00;99421.06;4984063;28;20721;-48
2023/09/22 00:15:34;;;;;;;1.50;1.40;;;;;;;16.68;100.00;99425.94;4987086;28;20619;-46
2023/09/22 00:18:00;;;;;;;3.67;1.70;;;;;;;16.65;100.00;99442.41;4983535;28;20190;-46
2023/09/22 00:20:26;;;;;;;2.45;1.40;;;;;;;16.71;100.00;99424.81;4983827;28;20201;-46
2023/09/22 00:22:52;;;;;;;2.22;1.42;;;;;;;16.72;100.00;99418.41;4982735;28;20196;-46
2023/09/22 00:25:18;;;;;;;1.55;1.40;;;;;;;16.72;100.00;99423.81;4989074;28;20299;-47
2023/09/22 00:27:43;;;;;;;1.90;1.35;;;;;;;16.58;100.00;99426.84;4989600;28;20600;-45
2023/09/22 00:30:10;;;;;;;2.17;1.20;;;;;;;16.67;100.00;99420.66;4989772;28;20174;-46
2023/09/22 00:32:37;;;;;;;1.75;1.42;;;;;;;16.62;100.00;99418.34;4988214;28;20219;-46
2023/09/22 00:35:03;;;;;;;1.40;1.30;;;;;;;16.64;100.00;99435.31;4989786;28;20265;-46
2023/09/22 00:37:29;;;;;;;1.30;1.20;;;;;;;16.71;100.00;99430.22;4993019;28;20185;-46
2023/09/22 00:39:54;;;;;;;1.65;1.55;;;;;;;16.61;100.00;99430.13;4988894;28;20228;-46
2023/09/22 00:42:21;;;;;;;1.55;1.42;;;;;;;16.63;100.00;99441.69;4992469;28;20197;-48
2023/09/22 00:44:47;;;;;;;1.70;1.60;;;;;;;16.66;100.00;99451.38;4993695;28;20181;-46
2023/09/22 00:47:14;;;;;;;2.40;1.60;;;;;;;16.59;100.00;99447.47;4993260;28;20204;-47
2023/09/22 00:49:42;;;;;;;2.70;1.85;;;;;;;16.55;100.00;99456.84;4991806;28;20265;-46
2023/09/22 00:52:09;;;;;;;4.13;1.83;;;;;;;16.41;100.00;99464.28;4986369;28;20679;-45
2023/09/22 00:54:35;;;;;;;3.38;1.70;;;;;;;16.52;100.00;99470.63;4994120;28;20189;-47
2023/09/22 00:57:04;;;;;;;1.70;1.60;;;;;;;16.42;100.00;99470.53;4988573;28;20208;-47
2023/09/22 00:59:31;;;;;;;1.88;1.70;;;;;;;16.28;100.00;99466.31;5003263;28;20200;-46
2023/09/22 01:01:57;;;;;;;2.33;1.67;;;;;;;16.25;100.00;99475.53;4982113;28;20672;-47
2023/09/22 01:04:23;;;;;;;2.13;1.50;;;;;;;16.29;100.00;99470.75;4986572;28;20197;-46
2023/09/22 01:06:49;;;;;;;4.00;1.70;;;;;;;16.15;100.00;99476.44;4986523;28;20249;-46
2023/09/22 01:09:15;;;;;;;2.50;1.63;;;;;;;16.11;100.00;99464.16;4995142;28;20256;-48
2023/09/22 01:11:41;;;;;;;1.85;1.67;;;;;;;16.12;100.00;99457.78;4986817;28;20296;-46
2023/09/22 01:14:07;;;;;;;2.47;1.75;;;;;;;16.18;100.00;99465.34;4985604;28;20194;-48
2023/09/22 01:16:32;;;;;;;1.92;1.83;;;;;;;16.12;100.00;99468.59;4988210;28;20185;-46
2023/09/22 01:18:59;;;;;;;2.92;1.67;;;;;;;16.05;100.00;99470.94;4988942;28;20178;-46
2023/09/22 01:21:29;;;;;;;2.15;1.92;;;;;;;15.97;100.00;99471.56;4984619;28;20210;-46
2023/09/22 01:23:55;;;;;;;2.17;1.80;;;;;;;15.92;100.00;99460.28;4985434;28;20232;-46
2023/09/22 01:26:21;;;;;;;2.10;1.88;;;;;;;15.95;100.00;99468.13;4989154;28;20185;-46
2023/09/22 01:28:47;;;;;;;2.47;1.60;;;;;;;15.97;100.00;99463.47;4994486;28;20272;-48
2023/09/22 01:31:13;;;;;;;2.55;2.25;;;;;;;15.96;100.00;99459.06;4985914;28;20201;-47
2023/09/22 01:33:39;;;;;;;2.10;2.00;;;;;;;15.96;100.00;99458.16;4985350;28;20197;-47
2023/09/22 01:36:05;;;;;;;3.50;2.53;;;;;;;15.85;100.00;99450.94;4985463;28;20181;-47
2023/09/22 01:38:31;;;;;;;3.53;2.70;;;;;;;15.86;100.00;99442.72;4992066;28;20188;-48
2023/09/22 01:40:58;;;;;;;4.43;2.53;;;;;;;15.87;100.00;99440.88;4984850;28;20332;-46
2023/09/22 01:43:24;;;;;;;4.80;3.03;;;;;;;15.88;100.00;99439.91;4987649;28;20186;-47
2023/09/22 01:45:49;;;;;;;4.50;3.08;;;;;;;15.96;100.00;99450.94;4986141;28;20188;-47
2023/09/22 01:48:15;;;;;;;3.42;3.17;;;;;;;15.89;100.00;99438.06;4984021;28;20197;-47
2023/09/22 01:50:41;;;;;;;5.38;3.22;;;;;;;15.86;100.00;99426.53;5003368;28;20652;-46
2023/09/22 01:53:09;;;;;;;3.33;3.00;;;;;;;15.90;100.00;99442.50;4993493;28;20249;-46
2023/09/22 01:55:38;;;;;;;6.10;3.50;;;;;;;15.84;100.00;99450.09;4984406;28;20675;-47
2023/09/22 01:58:11;;;;;;;3.80;3.53;;;;;;;15.81;100.00;99447.66;4991104;28;20187;-48
2023/09/22 02:00:37;;;;;;;4.18;3.80;;;;;;;15.84;100.00;99439.28;5004841;28;20213;-46
2023/09/22 02:03:03;;;;;;;4.50;4.10;;;;;;;15.82;100.00;99446.66;4989982;28;20218;-47
2023/09/22 02:05:32;;;;;;;5.25;4.80;;;;;;;15.77;100.00;99456.16;5001475;28;20200;-46
2023/09/22 02:07:57;;;;;;;5.00;4.60;;;;;;;15.80;100.00;99461.28;4985323;28;20189;-46
2023/09/22 02:10:23;;;;;;;5.75;5.35;;;;;;;15.74;100.00;99461.78;4992149;28;20553;-46
2023/09/22 02:12:49;;;;;;;5.65;5.25;;;;;;;15.69;100.00;99469.38;5001892;28;20363;-46
2023/09/22 02:15:14;;;;;;;6.43;5.82;;;;;;;15.72;100.00;99477.25;4987667;28;20185;-47
2023/09/22 02:17:43;;;;;;;7.22;5.30;;;;;;;15.71;100.00;99478.22;4990048;28;20182;-47
2023/09/22 02:20:23;;;;;;;6.28;5.65;;;;;;;15.68;100.00;99467.63;4993121;28;20292;-47
2023/09/22 02:22:51;;;;;;;6.35;5.75;;;;;;;15.68;100.00;99460.41;4992586;28;20205;-46
2023/09/22 02:25:17;;;;;;;7.78;5.78;;;;;;;15.73;100.00;99465.47;4990487;28;20208;-48
2023/09/22 02:27:44;;;;;;;6.35;5.82;;;;;;;15.64;100.00;99454.41;4987034;28;20769;-46
2023/09/22 02:30:10;;;;;;;5.72;5.22;;;;;;;15.58;100.00;99454.91;4990256;28;20190;-46
2023/09/22 02:32:38;;;;;;;6.20;5.68;;;;;;;15.54;100.00;99457.97;4984827;28;20577;-47
2023/09/22 02:35:04;;;;;;;6.25;5.75;;;;;;;15.57;100.00;99457.75;4991350;28;20201;-47
2023/09/22 02:37:29;;;;;;;5.40;4.97;;;;;;;15.56;100.00;99453.31;4982675;28;20265;-46
2023/09/22 02:39:55;;;;;;;5.10;4.60;;;;;;;15.50;100.00;99470.84;4984589;28;20209;-45
2023/09/22 02:42:21;;;;;;;4.50;4.20;;;;;;;15.58;100.00;99479.19;4993417;28;20205;-48
2023/09/22 02:44:47;;;;;;;4.88;4.32;;;;;;;15.55;100.00;99476.75;4993135;28;20188;-48
2023/09/22 02:47:14;;;;;;;4.10;3.80;;;;;;;15.42;100.00;99476.03;4990007;28;20190;-50
2023/09/22 02:49:40;;;;;;;4.13;3.75;;;;;;;15.45;100.00;99482.00;4985242;28;20181;-49
2023/09/22 02:52:05;;;;;;;3.67;3.33;;;;;;;15.45;100.00;99491.97;4981842;28;20565;-47
2023/09/22 02:54:31;;;;;;;2.80;2.60;;;;;;;15.43;100.00;99502.88;4991320;28;20190;-47
2023/09/22 02:56:56;;;;;;;3.58;2.15;;;;;;;15.40;100.00;99499.56;4984988;28;20194;-47
2023/09/22 02:59:23;;;;;;;2.10;1.77;;;;;;;15.41;100.00;99512.06;4983272;28;20557;-48
2023/09/22 03:01:49;;;;;;;1.30;1.20;;;;;;;15.34;100.00;99517.09;4981070;28;20204;-46
2023/09/22 03:04:15;;;;;;;1.02;1.02;;;;;;;15.25;100.00;99524.09;4986193;28;20513;-48
2023/09/22 03:06:41;;;;;;;1.20;1.10;;;;;;;15.23;100.00;99523.34;4984941;28;20277;-47
2023/09/22 03:09:07;;;;;;;0.93;0.90;;;;;;;15.16;100.00;99529.34;4989412;28;20190;-47
2023/09/22 03:11:33;;;;;;;0.73;0.73;;;;;;;15.16;100.00;99532.91;4980032;28;20217;-47
2023/09/22 03:13:59;;;;;;;1.95;0.98;;;;;;;15.13;100.00;99529.56;4983471;28;20181;-47
2023/09/22 03:16:29;;;;;;;1.40;0.55;;;;;;;15.19;100.00;99529.97;4985403;28;20683;-48
2023/09/22 03:18:57;;;;;;;1.38;0.60;;;;;;;15.12;100.00;99531.41;4985257;28;20209;-47
2023/09/22 03:21:23;;;;;;;0.70;0.57;;;;;;;15.06;100.00;99526.50;4980058;28;20822;-47
2023/09/22 03:23:53;;;;;;;0.50;0.50;;;;;;;15.16;100.00;99526.66;4977843;28;20654;-48
2023/09/22 03:26:20;;;;;;;0.50;0.50;;;;;;;15.08;100.00;99532.63;4983144;28;20204;-46
2023/09/22 03:28:48;;;;;;;0.75;0.70;;;;;;;15.10;100.00;99536.06;4976034;28;20181;-48
2023/09/22 03:31:16;;;;;;;1.23;0.60;;;;;;;15.09;100.00;99539.78;4988834;28;20289;-48
2023/09/22 03:33:46;;;;;;;0.82;0.52;;;;;;;15.04;100.00;99539.25;4984478;28;20260;-48
2023/09/22 03:36:13;;;;;;;0.60;0.60;;;;;;;14.98;100.00;99535.19;4987173;28;20178;-46
2023/09/22 03:38:41;;;;;;;1.05;0.43;;;;;;;14.98;100.00;99545.13;4989532;28;20186;-46
2023/09/22 03:41:07;;;;;;;0.60;0.50;;;;;;;15.04;100.00;99541.94;4997989;28;20334;-47
2023/09/22 03:43:33;;;;;;;3.13;0.55;;;;;;;14.91;100.00;99546.56;4989224;28;20201;-46
2023/09/22 03:45:59;;;;;;;1.05;0.68;;;;;;;15.07;100.00;99536.31;4981551;28;20651;-47
2023/09/22 03:48:25;;;;;;;1.27;0.40;;;;;;;14.95;100.00;99529.16;4981981;28;20237;-45
2023/09/22 03:50:50;;;;;;;1.33;0.50;;;;;;;14.89;100.00;99548.53;4991905;28;20177;-44
2023/09/22 03:53:16;;;;;;;0.60;0.60;;;;;;;14.87;100.00;99553.16;4988769;28;20229;-46
2023/09/22 03:55:44;;;;;;;1.33;0.57;;;;;;;14.80;100.00;99553.66;4985052;28;20272;-47
2023/09/22 03:58:10;;;;;;;0.63;0.50;;;;;;;14.76;100.00;99554.00;4979861;28;20198;-45
2023/09/22 04:00:37;;;;;;;1.65;0.50;;;;;;;14.80;100.00;99544.69;4989380;28;20204;-47
2023/09/22 04:03:05;;;;;;;1.17;0.75;;;;;;;14.77;100.00;99551.19;4985289;28;20205;-44
2023/09/22 04:05:30;;;;;;;2.33;0.55;;;;;;;14.81;100.00;99549.97;4985805;28;20562;-47
2023/09/22 04:07:57;;;;;;;0.50;0.50;;;;;;;14.77;100.00;99561.97;4984783;28;20196;-45
2023/09/22 04:10:23;;;;;;;0.93;0.50;;;;;;;14.75;100.00;99569.31;4985382;28;20204;-44
2023/09/22 04:12:50;;;;;;;1.35;0.60;;;;;;;14.76;100.00;99576.44;4989112;28;20211;-45
2023/09/22 04:15:15;;;;;;;1.50;0.50;;;;;;;14.75;100.00;99577.41;4978977;28;20200;-46
2023/09/22 04:17:42;;;;;;;1.48;0.50;;;;;;;14.74;100.00;99567.59;4985383;28;20177;-46
2023/09/22 04:20:10;;;;;;;1.35;0.70;;;;;;;14.69;100.00;99569.75;4984000;28;20201;-45
2023/09/22 04:22:37;;;;;;;0.75;0.68;;;;;;;14.73;100.00;99560.47;4987975;28;20288;-43
2023/09/22 04:25:09;;;;;;;0.80;0.77;;;;;;;14.66;100.00;99575.41;4984628;28;20189;-45
2023/09/22 04:27:40;;;;;;;1.17;1.08;;;;;;;14.61;100.00;99577.59;4983624;28;20273;-47
2023/09/22 04:30:07;;;;;;;1.50;1.40;;;;;;;14.66;100.00;99579.94;4984809;28;20260;-44
2023/09/22 04:32:33;;;;;;;1.40;1.30;;;;;;;14.65;100.00;99583.59;4986765;28;20209;-45
2023/09/22 04:35:09;;;;;;;2.13;1.85;;;;;;;14.70;100.00;99589.53;4982018;28;20239;-45
2023/09/22 04:37:35;;;;;;;2.83;2.00;;;;;;;14.63;100.00;99575.66;4980134;28;20181;-46
2023/09/22 04:40:00;;;;;;;2.67;1.77;;;;;;;14.67;100.00;99587.94;4981348;28;20601;-45
2023/09/22 04:42:27;;;;;;;2.38;1.63;;;;;;;14.77;100.00;99585.38;4986828;28;20212;-45
2023/09/22 04:44:52;;;;;;;1.67;1.58;;;;;;;14.67;100.00;99579.84;4984847;28;20216;-44
2023/09/22 04:47:18;;;;;;;2.47;2.05;;;;;;;14.65;100.00;99580.91;4986801;28;20182;-45
2023/09/22 04:49:43;;;;;;;3.53;2.20;;;;;;;14.55;100.00;99591.53;4982357;28;20182;-44
2023/09/22 04:52:09;;;;;;;3.33;2.00;;;;;;;14.53;100.00;99582.66;4985442;28;20193;-47
2023/09/22 04:54:34;;;;;;;2.00;1.83;;;;;;;14.53;100.00;99583.50;4984129;28;20247;-46
2023/09/22 04:57:00;;;;;;;2.20;2.00;;;;;;;14.59;100.00;99601.09;4986130;28;20276;-45
2023/09/22 04:59:26;;;;;;;2.83;2.03;;;;;;;14.56;100.00;99598.63;4985419;28;20204;-43
2023/09/22 05:01:51;;;;;;;2.30;1.95;;;;;;;14.49;100.00;99608.13;4979708;28;20213;-45
2023/09/22 05:04:17;;;;;;;1.95;1.73;;;;;;;14.51;100.00;99598.94;4983846;28;20210;-44
2023/09/22 05:06:43;;;;;;;3.30;1.88;;;;;;;14.41;100.00;99604.16;4995580;28;20197;-44
2023/09/22 05:09:09;;;;;;;2.30;2.00;;;;;;;14.45;100.00;99588.59;4984420;28;20189;-44
2023/09/22 05:11:35;;;;;;;2.42;2.05;;;;;;;14.38;100.00;99588.19;4993058;28;20288;-44
2023/09/22 05:14:01;;;;;;;1.92;1.80;;;;;;;14.54;100.00;99587.06;4984385;28;20260;-47
2023/09/22 05:16:27;;;;;;;2.40;2.20;;;;;;;14.36;100.00;99600.94;4992578;28;20189;-44
2023/09/22 05:18:54;;;;;;;2.47;2.28;;;;;;;14.45;100.00;99596.69;4981767;28;20193;-45
2023/09/22 05:21:19;;;;;;;3.53;2.22;;;;;;;14.39;100.00;99600.72;4986488;28;20571;-46
2023/09/22 05:23:45;;;;;;;2.92;1.92;;;;;;;14.41;100.00;99606.00;4986500;28;20188;-46
2023/09/22 05:26:11;;;;;;;2.22;1.73;;;;;;;14.45;100.00;99614.69;4990902;28;20237;-45
2023/09/22 05:28:37;;;;;;;1.75;1.65;;;;;;;14.38;100.00;99623.22;4985839;28;20281;-45
2023/09/22 05:31:05;;;;;;;3.05;1.90;;;;;;;14.42;100.00;99622.03;4987103;28;20236;-44
2023/09/22 05:33:32;;;;;;;3.83;1.50;;;;;;;14.43;100.00;99622.91;4987040;28;20185;-45
2023/09/22 05:35:58;;;;;;;1.92;1.80;;;;;;;14.34;100.00;99640.63;4984485;28;20194;-45
2023/09/22 05:38:24;;;;;;;1.60;1.50;;;;;;;14.42;100.00;99631.97;4984661;28;20209;-47
2023/09/22 05:40:49;;;;;;;3.67;1.20;;;;;;;14.33;100.00;99630.81;4989016;28;20250;-45
2023/09/22 05:43:15;;;;;;;2.00;0.88;;;;;;;14.35;100.00;99628.84;4984139;28;20533;-45
2023/09/22 05:45:43;;;;;;;1.52;1.42;;;;;;;14.32;100.00;99645.25;4987966;28;20287;-46
2023/09/22 05:48:09;;;;;;;2.15;1.05;;;;;;;14.50;100.00;99642.19;4988801;28;20608;-44
2023/09/22 05:50:36;;;;;;;1.70;1.20;;;;;;;14.45;100.00;99634.41;4987874;28;20180;-46
2023/09/22 05:53:04;;;;;;;1.95;1.45;;;;;;;14.38;100.00;99663.66;4983716;28;20272;-47
2023/09/22 05:55:30;;;;;;;2.28;1.30;;;;;;;14.34;100.00;99659.50;4991362;28;20185;-45
2023/09/22 05:57:56;;;;;;;2.15;1.90;;;;;;;14.29;100.00;99648.16;4986522;28;20285;-46
2023/09/22 06:00:26;;;;;;;1.80;1.70;;;;;;;14.32;100.00;99645.25;4984241;28;20470;-47
2023/09/22 06:02:52;;;;;;;2.40;1.95;;;;;;;14.28;100.00;99654.53;4988946;28;20235;-46
2023/09/22 06:05:20;;;;;;;3.53;1.85;;;;;;;14.30;100.00;99651.72;4986377;28;20580;-45
2023/09/22 06:07:46;;;;;;;2.63;1.63;;;;;;;14.31;100.00;99656.16;4982563;28;20193;-45
2023/09/22 06:10:12;;;;;;;6.95;2.60;;;;;;;14.27;100.00;99657.34;4988030;28;20186;-46
2023/09/22 06:12:38;;;;;;;4.43;3.83;;;;;;;14.26;100.00;99686.13;4991829;28;20284;-46
2023/09/22 06:15:08;;;;;;;8.32;6.15;;;;;;;14.34;100.00;99689.13;4992097;28;20652;-45
2023/09/22 06:17:36;;;;;;;6.57;5.90;;;;;;;14.30;100.00;99674.16;4988336;28;20687;-46
2023/09/22 06:20:09;;;;;;;7.13;6.45;;;;;;;14.25;100.00;99675.44;4985194;28;20644;-44
2023/09/22 06:22:35;;;;;;;7.38;6.68;;;;;;;14.27;100.00;99685.13;4987779;28;20193;-44
2023/09/22 06:25:01;;;;;;;8.20;7.40;;;;;;;14.27;100.00;99684.28;4979582;28;20738;-46
2023/09/22 06:27:27;;;;;;;8.82;8.02;;;;;;;14.36;100.00;99700.63;4981749;28;20633;-46
2023/09/22 06:29:53;;;;;;;8.48;7.50;;;;;;;14.46;100.00;99695.44;4985567;28;20212;-45
2023/09/22 06:32:18;;;;;;;8.35;7.30;;;;;;;14.49;100.00;99687.13;4981143;28;20236;-46
2023/09/22 06:34:44;;;;;;;8.65;7.88;;;;;;;14.52;100.00;99694.13;4979336;28;20182;-45
2023/09/22 06:37:09;;;;;;;8.00;7.20;;;;;;;14.57;100.00;99697.41;4985101;28;20193;-44
2023/09/22 06:39:35;;;;;;;7.32;6.63;;;;;;;14.67;100.00;99697.56;4984056;28;20218;-44
2023/09/22 06:42:01;;;;;;;7.10;6.13;;;;;;;14.71;100.00;99694.53;4980715;28;20236;-46
2023/09/22 06:44:27;;;;;;;6.55;5.88;;;;;;;14.97;100.00;99691.75;4981405;28;20200;-45
2023/09/22 06:46:53;;;;;;;5.28;4.88;;;;;;;15.51;100.00;99696.63;4983785;28;20189;-46
2023/09/22 06:49:19;;;;;;;7.90;4.40;;;;;;;15.95;100.00;99700.44;4979372;28;20190;-46
2023/09/22 06:51:44;;;;;;;4.03;3.72;;;;;;;16.29;100.00;99705.88;4979432;28;20218;-45
2023/09/22 06:54:10;;;;;;;4.03;3.72;;;;;;;16.19;100.00;99699.50;4982807;28;20193;-46
2023/09/22 06:56:36;;;;;;;4.20;3.40;;;;;;;15.90;100.00;99708.06;4986971;28;20240;-45
2023/09/22 06:59:02;;;;;;;4.00;3.70;;;;;;;15.60;100.00;99717.53;4983322;28;20680;-45
2023/09/22 07:01:28;;;;;;;3.60;3.30;;;;;;;16.10;100.00;99724.53;4976904;28;20221;-44
2023/09/22 07:03:53;;;;;;;3.55;3.25;;;;;;;16.15;100.00;99728.59;4983128;28;20586;-45
2023/09/22 07:06:20;;;;;;;3.42;3.22;;;;;;;16.21;100.00;99738.91;5002753;28;20181;-45
2023/09/22 07:08:46;;;;;;;5.90;3.30;;;;;;;15.84;100.00;99754.44;4979969;28;20178;-45
2023/09/22 07:11:12;;;;;;;4.22;3.92;;;;;;;15.72;100.00;99755.38;4983980;28;20197;-45
2023/09/22 07:13:40;;;;;;;5.03;4.50;;;;;;;15.51;100.00;99757.88;4985079;28;20209;-46
2023/09/22 07:16:07;;;;;;;4.72;4.25;;;;;;;15.54;100.00;99760.31;4980132;28;20557;-45
2023/09/22 07:18:32;;;;;;;4.25;4.00;;;;;;;15.59;100.00;99771.63;4979739;28;20549;-45
2023/09/22 07:20:58;;;;;;;5.50;4.07;;;;;;;15.36;100.00;99768.84;4993325;23;20719;-46
2023/09/22 07:23:24;;;;;;;4.53;4.13;;;;;;;15.55;100.00;99771.03;4984287;28;20190;-44
2023/09/22 07:26:09;;;;;;;4.88;4.47;;;;;;;15.74;100.00;99791.25;4981742;28;20187;-47
2023/09/22 07:28:36;;;;;;;4.50;4.10;;;;;;;15.67;100.00;99796.22;4982851;28;20671;-45
2023/09/22 07:31:11;;;;;;;4.88;4.47;;;;;;;15.82;100.00;99796.91;4983282;28;20694;-45
2023/09/22 07:33:37;;;;;;;4.60;4.20;;;;;;;15.93;100.00;99801.50;4979609;28;20195;-44
2023/09/22 07:36:02;;;;;;;4.85;4.45;;;;;;;15.80;100.00;99796.19;4984067;28;20192;-44
2023/09/22 07:38:29;;;;;;;5.38;4.97;;;;;;;15.82;100.00;99797.78;4983966;28;20292;-43
2023/09/22 07:40:55;;;;;;;5.30;4.88;;;;;;;15.73;100.00;99784.13;4984662;28;20213;-44
2023/09/22 07:43:21;;;;;;;5.13;4.72;;;;;;;15.72;100.00;99790.50;4983613;28;20558;-45
2023/09/22 07:45:47;;;;;;;5.68;4.95;;;;;;;15.66;100.00;99794.50;4988199;28;20185;-45
2023/09/22 07:48:13;;;;;;;6.40;5.90;;;;;;;15.57;100.00;99804.16;4981414;28;20178;-43
2023/09/22 07:50:39;;;;;;;5.47;5.05;;;;;;;15.56;100.00;99813.22;4983717;28;20185;-43
2023/09/22 07:53:05;;;;;;;5.78;5.32;;;;;;;15.59;100.00;99798.63;4981366;28;20605;-43
2023/09/22 07:55:31;;;;;;;7.22;6.63;;;;;;;15.62;100.00;99795.72;4982252;28;20190;-44
2023/09/22 07:57:57;;;;;;;8.25;6.78;;;;;;;15.57;100.00;99798.75;4987147;28;20184;-44
2023/09/22 08:00:26;;;;;;;6.90;6.20;;;;;;;15.57;100.00;99793.38;4978767;28;20282;-47
2023/09/22 08:02:52;;;;;;;6.13;5.63;;;;;;;15.53;100.00;99808.06;4983453;28;20556;-42
2023/09/22 08:05:18;;;;;;;7.82;7.13;;;;;;;15.56;100.00;99812.38;4978058;28;20198;-43
2023/09/22 08:07:45;;;;;;;8.52;6.38;;;;;;;15.60;100.00;99820.13;4982022;28;20177;-45
2023/09/22 08:10:12;;;;;;;8.40;7.63;;;;;;;15.52;100.00;99818.97;4982185;28;20268;-44
2023/09/22 08:12:38;;;;;;;8.68;7.88;;;;;;;15.43;100.00;99831.31;4983645;28;20364;-43
2023/09/22 08:15:05;;;;;;;8.25;7.43;;;;;;;15.42;100.00;99833.16;4984232;28;20645;-43
2023/09/22 08:17:31;;;;;;;8.90;7.97;;;;;;;15.45;100.00;99843.72;4982023;28;20201;-46
2023/09/22 08:19:56;;;;;;;9.57;8.77;;;;;;;15.43;100.00;99834.03;4982822;28;20201;-45
2023/09/22 08:22:22;;;;;;;9.30;8.50;;;;;;;15.49;100.00;99833.56;4981159;28;20329;-44
2023/09/22 08:24:48;;;;;;;10.35;9.32;;;;;;;15.42;100.00;99813.41;4981599;28;20182;-45
2023/09/22 08:27:14;;;;;;;10.70;9.60;;;;;;;15.78;100.00;99817.03;4984275;28;20193;-44
2023/09/22 08:29:39;;;;;;;10.05;9.13;;;;;;;16.01;100.00;99815.28;4980700;28;20398;-45
2023/09/22 08:32:05;;;;;;;10.32;9.48;;;;;;;15.98;100.00;99813.69;4984392;28;20288;-44
2023/09/22 08:34:35;;;;;;;10.18;9.38;;;;;;;16.09;100.00;99828.19;4984566;28;20204;-44
2023/09/22 08:37:01;;;;;;;9.73;8.93;;;;;;;16.16;100.00;99826.72;4985350;28;20200;-45
2023/09/22 08:39:26;;;;;;;9.25;8.45;;;;;;;16.36;100.00;99833.31;4982293;28;20185;-42
2023/09/22 08:41:52;;;;;;;8.90;8.10;;;;;;;16.28;100.00;99834.75;4976861;28;20200;-41
2023/09/22 08:44:19;;;;;;;8.48;7.78;;;;;;;16.39;100.00;99839.31;4985379;28;20657;-45
2023/09/22 08:46:47;;;;;;;11.02;9.93;;;;;;;16.42;100.00;99835.50;4985393;28;20193;-45
2023/09/22 08:49:13;;;;;;;10.32;9.43;;;;;;;16.66;100.00;99821.88;4989509;28;20221;-44
2023/09/22 08:51:39;;;;;;;9.40;8.60;;;;;;;16.82;100.00;99818.88;4984509;28;20336;-43
2023/09/22 08:54:05;;;;;;;11.35;9.73;;;;;;;16.71;100.00;99826.97;4987038;28;20277;-44
2023/09/22 08:56:31;;;;;;;10.75;8.73;;;;;;;16.84;100.00;99828.56;4987329;28;20204;-45
2023/09/22 08:58:56;;;;;;;9.20;8.40;;;;;;;16.73;100.00;99822.28;4983862;28;20655;-45
2023/09/22 09:01:23;;;;;;;9.32;8.52;;;;;;;16.84;100.00;99820.47;4990047;28;20232;-45
2023/09/22 09:03:49;;;;;;;8.68;7.85;;;;;;;17.26;100.00;99808.97;4983349;28;20652;-46
2023/09/22 09:06:17;;;;;;;9.63;8.73;;;;;;;17.40;100.00;99818.66;4986232;28;20314;-42
2023/09/22 09:09:02;;;;;;;7.95;7.25;;;;;;;17.25;100.00;99809.94;4987407;28;20237;-45
2023/09/22 09:11:28;;;;;;;8.25;7.47;;;;;;;17.17;100.00;99816.00;4985051;28;20268;-44
2023/09/22 09:13:54;;;;;;;7.63;6.93;;;;;;;16.84;100.00;99812.34;4987258;28;20280;-44
2023/09/22 09:16:33;;;;;;;7.30;6.72;;;;;;;16.71;100.00;99795.34;4982085;28;20190;-45
2023/09/22 09:19:15;;;;;;;7.45;6.75;;;;;;;16.91;100.00;99777.53;4985615;28;20186;-45
2023/09/22 09:22:08;;;;;;;7.72;7.03;;;;;;;16.87;100.00;99778.75;4986805;28;21108;-44
2023/09/22 09:24:34;;;;;;;8.10;7.30;;;;;;;16.94;98.97;99784.53;4979739;28;20279;-48
2023/09/22 09:27:00;;;;;;;6.60;6.00;;;;;;;17.01;98.45;99791.16;4985285;28;20213;-48
2023/09/22 09:29:30;;;;;;;7.05;6.47;;;;;;;17.03;97.88;99797.31;4980551;28;20217;-49
2023/09/22 09:32:00;;;;;;;7.78;6.38;;;;;;;17.20;96.70;99798.63;4986337;28;20213;-46
2023/09/22 09:34:39;;;;;;;5.93;5.40;;;;;;;17.84;95.31;99795.13;4988542;28;20186;-49
2023/09/22 09:37:13;;;;;;;6.03;5.63;;;;;;;17.91;93.06;99790.91;4980963;28;20189;-47
2023/09/22 09:39:50;;;;;;;6.20;5.57;;;;;;;18.16;91.87;99775.22;4980388;28;20189;-49
2023/09/22 09:42:26;;;;;;;5.75;5.18;;;;;;;18.17;90.12;99787.78;4984137;28;20219;-48
2023/09/22 09:44:54;;;;;;;5.30;4.90;;;;;;;17.88;89.75;99786.59;4981547;28;20273;-49
2023/09/22 09:47:30;;;;;;;6.05;5.43;;;;;;;17.68;88.90;99788.25;4984245;28;20219;-49
2023/09/22 09:49:59;;;;;;;5.40;5.00;;;;;;;17.65;88.68;99784.97;4984559;28;20173;-48
2023/09/22 09:52:32;;;;;;;5.57;5.18;;;;;;;17.38;88.47;99788.13;4986913;28;20216;-47
2023/09/22 09:55:08;;;;;;;6.10;5.55;;;;;;;17.48;89.63;99799.91;4984337;28;20190;-49
2023/09/22 09:57:39;;;;;;;5.70;5.30;;;;;;;17.03;89.35;99805.44;4982784;28;20208;-48
2023/09/22 10:00:14;;;;;;;5.28;4.95;;;;;;;16.89;89.40;99814.66;4988918;28;20208;-50
2023/09/22 10:02:44;;;;;;;6.10;5.47;;;;;;;16.86;89.66;99810.38;4982641;28;20208;-51
2023/09/22 10:05:15;;;;;;;5.38;4.97;;;;;;;16.99;89.47;99818.38;4981136;28;20631;-50
2023/09/22 10:07:43;;;;;;;5.00;4.50;;;;;;;17.18;89.24;99803.31;4982961;28;20193;-52
2023/09/22 10:10:11;;;;;;;5.88;5.45;;;;;;;16.93;88.89;99810.75;4983513;28;20280;-49
2023/09/22 10:12:37;;;;;;;5.25;4.80;;;;;;;17.00;88.48;99801.13;4978913;28;20805;-48
2023/09/22 10:15:04;;;;;;;5.28;4.88;;;;;;;17.00;88.51;99809.25;4982215;28;20261;-50
2023/09/22 10:17:31;;;;;;;5.63;5.15;;;;;;;17.20;88.60;99798.63;4983699;28;20623;-48
2023/09/22 10:20:02;;;;;;;4.65;4.25;;;;;;;17.45;87.51;99800.19;4986050;28;20617;-48
2023/09/22 10:22:29;;;;;;;8.27;4.85;;;;;;;17.73;86.66;99796.00;4981727;28;20217;-50
2023/09/22 10:25:12;;;;;;;4.90;4.50;;;;;;;17.84;85.87;99800.53;4982146;28;20181;-50
2023/09/22 10:28:02;;;;;;;4.53;4.22;;;;;;;17.59;84.23;99804.44;4983130;28;20323;-50
2023/09/22 10:31:02;;;;;;;4.97;4.47;;;;;;;17.27;83.48;99795.31;4982998;28;20232;-47
2023/09/22 10:33:30;;;;;;;3.97;3.55;;;;;;;17.46;83.67;99796.47;4949430;28;20582;-48
2023/09/22 10:35:57;;;;;;;3.53;3.20;;;;;;;17.41;83.40;99788.75;4982455;28;20583;-50
2023/09/22 10:38:24;;;;;;;4.72;3.28;;;;;;;17.79;82.97;99800.91;4979398;28;20199;-50
2023/09/22 10:41:02;;;;;;;4.30;3.90;;;;;;;18.03;82.34;99802.53;4981349;28;20284;-51
2023/09/22 10:43:30;;;;;;;4.65;3.28;;;;;;;18.23;81.55;99795.38;4980881;28;20201;-50
2023/09/22 10:45:56;;;;;;;5.00;3.50;;;;;;;17.94;81.02;99825.88;4981423;28;20190;-49
2023/09/22 10:48:21;;;;;;;4.28;3.90;;;;;;;18.09;80.87;99816.41;4980722;28;20186;-50
2023/09/22 10:50:51;;;;;;;3.40;3.10;;;;;;;18.21;81.08;99813.63;4985792;28;20201;-50
2023/09/22 10:53:17;;;;;;;3.53;3.22;;;;;;;17.90;81.13;99814.41;4982951;28;20209;-50
2023/09/22 10:55:44;;;;;;;4.60;4.25;;;;;;;17.28;81.33;99818.69;4978529;28;20682;-50
2023/09/22 10:58:12;;;;;;;4.82;4.25;;;;;;;17.13;82.20;99838.88;4984998;28;20189;-50
2023/09/22 11:00:40;;;;;;;4.47;3.72;;;;;;;17.13;82.62;99835.31;4979875;28;20205;-48
2023/09/22 11:03:10;;;;;;;8.90;4.47;;;;;;;16.88;83.13;99840.88;4980778;28;20218;-49
2023/09/22 11:05:40;;;;;;;5.75;5.25;;;;;;;17.01;83.10;99850.69;4980534;28;20280;-50
2023/09/22 11:08:17;;;;;;;4.50;4.10;;;;;;;17.11;83.10;99859.78;4985198;28;20561;-49
2023/09/22 11:10:54;;;;;;;3.92;3.72;;;;;;;17.47;83.22;99857.75;4986573;28;20492;-47
2023/09/22 11:13:23;;;;;;;5.60;3.97;;;;;;;17.45;82.46;99838.94;4977998;28;20174;-48
2023/09/22 11:15:56;;;;;;;4.43;4.03;;;;;;;17.54;82.28;99842.75;4977326;28;20203;-48
2023/09/22 11:18:28;;;;;;;4.10;3.80;;;;;;;17.90;82.71;99846.09;4983465;28;20177;-50
2023/09/22 11:20:57;;;;;;;4.18;3.55;;;;;;;18.03;82.33;99849.47;4981345;28;20209;-48
2023/09/22 11:23:26;;;;;;;4.68;3.25;;;;;;;18.10;81.87;99845.28;4981377;28;20671;-49
2023/09/22 11:25:53;;;;;;;2.92;2.67;;;;;;;18.07;81.51;99845.50;4980657;28;20174;-50
2023/09/22 11:28:19;;;;;;;2.42;2.28;;;;;;;18.65;81.57;99838.72;4982739;28;20212;-48